カシュガル の空港の天気 - METARとTAF

カシュガル空港 ( ZWSH / KHG ) - 中華人民共和国 新疆ウイグル自治区カシュガル市
飛行場実況気象(Metar)
観測時間04/28 00:00 CST (04/27 16:00 UTC)
風向・風速北西 4m/s
視程8000m
天気現象
なし
気温20℃
湿度21%
気圧1015hPa
METARZWSH 271600Z 31004MPS 8000 NSC 20/M03 Q1015 NOSIG
過去の天気等 Google飛行場航空写真 Wunderground天気予報

過去48時間のMETAR

飛行場予報(TAF)
発表時間: 4/27 17:15 CST (4/27 09:15 UTC)
予報対象時間: 27日20時 CST ~ 28日20時 CST
風向・風速東 4m/s 瞬間風速 9m/s
視程3,100m
天気現象風塵
なし
28日0時 CST ~ 28日1時 CST に徐々に
風向・風速東 4m/s
視程2,000m
天気現象風塵
TAF ZWSH 270915Z 2712/2812 09004G09MPS 3100 DU NSC TX26/2809Z TN16/2800Z
BECMG 2716/2717 09004MPS 2000 DU